Time;durP1;ratioP1;P1;durP2;ratioP2;P2;SDS_P1;SDS_P2;PMS_P1;PMS_P2;Temp;Humidity;BMP_temperature;BMP_pressure;BME280_temperature;BME280_humidity;BME280_pressure;Samples;Min_cycle;Max_cycle;Signal;HPM_P1;HPM_P2
2023/02/09 00:00:16;;;;;;;11.10;4.80;;;;;;;-6.84;87.59;97769.13;5056735;28;20698;-68
2023/02/09 00:02:43;;;;;;;10.77;4.33;;;;;;;-6.79;87.79;97764.72;5056457;28;20215;-68
2023/02/09 00:05:11;;;;;;;13.53;4.90;;;;;;;-6.89;89.04;97759.88;5056122;28;20206;-68
2023/02/09 00:07:37;;;;;;;17.13;5.30;;;;;;;-7.05;91.01;97754.28;5056558;28;20222;-68
2023/02/09 00:10:05;;;;;;;9.60;4.47;;;;;;;-6.93;90.01;97753.97;5056315;28;20203;-68
2023/02/09 00:15:17;;;;;;;8.53;5.07;;;;;;;-6.91;89.88;97759.06;5055383;28;20222;-68
2023/02/09 00:17:44;;;;;;;13.20;5.70;;;;;;;-6.78;89.70;97752.75;5056555;28;20214;-68
2023/02/09 00:20:11;;;;;;;6.57;3.77;;;;;;;-6.91;89.08;97751.38;5056686;28;20203;-68
2023/02/09 00:22:37;;;;;;;8.07;4.07;;;;;;;-6.94;88.95;97751.47;5056423;28;20214;-68
2023/02/09 00:25:04;;;;;;;10.10;4.23;;;;;;;-6.82;89.40;97748.59;5055709;28;20206;-68
2023/02/09 00:27:34;;;;;;;6.77;3.60;;;;;;;-6.83;89.41;97757.19;5056425;28;20210;-68
2023/02/09 00:30:02;;;;;;;11.73;4.53;;;;;;;-6.81;89.09;97748.56;5057326;28;20329;-68
2023/02/09 00:32:28;;;;;;;12.70;5.17;;;;;;;-6.88;89.06;97752.16;5056487;28;20670;-68
2023/02/09 00:34:55;;;;;;;5.47;3.63;;;;;;;-6.83;88.85;97758.00;5055173;28;20226;-68
2023/02/09 00:37:21;;;;;;;9.90;5.37;;;;;;;-6.82;87.59;97757.13;5056738;28;20207;-68
2023/02/09 00:39:47;;;;;;;8.00;4.00;;;;;;;-6.86;88.04;97754.66;5056836;28;20212;-68
2023/02/09 00:42:14;;;;;;;7.60;3.50;;;;;;;-6.77;88.15;97763.00;5056240;28;20234;-68
2023/02/09 00:44:41;;;;;;;5.33;3.03;;;;;;;-6.75;88.68;97768.91;5055692;28;20211;-68
2023/02/09 00:47:09;;;;;;;2.90;2.70;;;;;;;-6.71;88.63;97767.13;5056494;28;20205;-68
2023/02/09 00:49:38;;;;;;;8.03;3.60;;;;;;;-6.94;89.38;97761.69;5056260;28;20211;-68
2023/02/09 00:52:05;;;;;;;2.87;2.10;;;;;;;-6.83;89.51;97762.31;5059909;28;20749;-68
2023/02/09 00:54:32;;;;;;;7.97;4.70;;;;;;;-6.82;88.75;97762.25;5059857;28;20223;-68
2023/02/09 00:57:03;;;;;;;10.33;5.10;;;;;;;-6.91;88.31;97757.34;5059968;28;20198;-68
2023/02/09 00:59:30;;;;;;;4.37;3.47;;;;;;;-6.90;89.14;97763.31;5060344;28;20679;-68
2023/02/09 01:01:57;;;;;;;14.93;5.53;;;;;;;-7.07;89.79;97765.44;5060486;28;20218;-68
2023/02/09 01:04:25;;;;;;;8.77;3.60;;;;;;;-6.92;90.04;97755.66;5059485;28;20198;-68
2023/02/09 01:06:51;;;;;;;5.47;3.47;;;;;;;-7.06;90.65;97752.59;5059952;28;20894;-68
2023/02/09 01:09:18;;;;;;;5.83;4.63;;;;;;;-7.05;89.58;97759.41;5060160;28;20202;-68
2023/02/09 01:11:44;;;;;;;6.30;3.57;;;;;;;-6.95;90.04;97757.44;5059762;28;20733;-68
2023/02/09 01:14:11;;;;;;;11.40;4.83;;;;;;;-6.91;89.23;97753.94;5059337;28;20222;-68
2023/02/09 01:16:37;;;;;;;15.00;4.17;;;;;;;-6.92;89.26;97749.72;5059787;28;20203;-68
2023/02/09 01:19:04;;;;;;;13.67;4.13;;;;;;;-6.89;88.67;97750.47;5060253;28;20688;-68
2023/02/09 01:21:32;;;;;;;13.23;4.07;;;;;;;-6.98;88.66;97748.13;5059438;28;20234;-68
2023/02/09 01:23:58;;;;;;;9.50;4.97;;;;;;;-6.99;89.22;97745.59;5058896;28;20203;-68
2023/02/09 01:26:25;;;;;;;10.23;4.17;;;;;;;-7.14;89.21;97746.81;5060052;28;20202;-68
2023/02/09 01:28:53;;;;;;;6.13;4.30;;;;;;;-7.01;89.43;97743.06;5059697;28;20202;-68
2023/02/09 01:31:24;;;;;;;6.10;3.57;;;;;;;-6.92;88.41;97737.72;5059682;28;20217;-68
2023/02/09 01:33:51;;;;;;;11.57;5.77;;;;;;;-6.93;87.00;97741.16;5059223;28;20213;-68
2023/02/09 01:36:18;;;;;;;11.40;5.30;;;;;;;-6.97;85.61;97742.13;5059135;28;20892;-68
2023/02/09 01:38:46;;;;;;;4.20;3.83;;;;;;;-7.22;86.12;97746.16;5059399;28;20217;-68
2023/02/09 01:41:13;;;;;;;12.23;3.87;;;;;;;-7.19;86.45;97735.81;5060874;28;20227;-68
2023/02/09 01:43:51;;;;;;;3.30;2.93;;;;;;;-7.13;87.06;97737.38;5058655;28;20202;-68
2023/02/09 01:46:18;;;;;;;3.47;2.87;;;;;;;-7.40;88.73;97730.34;5058753;28;20206;-68
2023/02/09 01:48:44;;;;;;;8.33;3.57;;;;;;;-7.25;87.54;97736.81;5059587;28;20659;-68
2023/02/09 01:51:11;;;;;;;6.37;3.23;;;;;;;-7.22;87.17;97739.34;5059525;28;20218;-68
2023/02/09 01:53:38;;;;;;;13.00;3.60;;;;;;;-7.26;86.50;97741.13;5058250;28;20210;-68
2023/02/09 01:56:11;;;;;;;16.53;3.80;;;;;;;-7.19;86.71;97730.69;5059262;28;20218;-68
2023/02/09 01:58:39;;;;;;;3.03;2.73;;;;;;;-7.24;87.33;97730.84;5058718;28;20203;-68
2023/02/09 02:01:05;;;;;;;4.03;3.33;;;;;;;-7.28;87.29;97718.97;5058518;28;20242;-68
2023/02/09 02:03:32;;;;;;;10.60;4.07;;;;;;;-7.29;86.27;97719.84;5058913;28;20218;-68
2023/02/09 02:06:04;;;;;;;6.70;3.50;;;;;;;-7.35;86.91;97710.59;5058588;28;20201;-68
2023/02/09 02:08:35;;;;;;;10.13;3.73;;;;;;;-7.36;88.15;97705.53;5058916;28;20222;-68
2023/02/09 02:11:02;;;;;;;13.63;3.73;;;;;;;-7.45;88.35;97703.19;5058504;28;20218;-68
2023/02/09 02:13:29;;;;;;;12.60;3.80;;;;;;;-7.27;88.28;97701.00;5058673;28;20202;-68
2023/02/09 02:16:04;;;;;;;5.80;3.87;;;;;;;-7.18;87.60;97703.38;5058058;28;20226;-68
2023/02/09 02:18:50;;;;;;;3.60;2.87;;;;;;;-7.21;87.77;97696.59;5058729;28;20232;-68
2023/02/09 02:21:43;;;;;;;7.17;3.47;;;;;;;-7.18;87.78;97696.53;5058870;28;20225;-68
2023/02/09 02:24:52;;;;;;;8.80;3.43;;;;;;;-7.12;87.81;97691.25;5058168;28;20206;-68
2023/02/09 02:27:30;;;;;;;6.10;3.73;;;;;;;-7.12;87.78;97688.69;5058748;28;20202;-68
2023/02/09 02:30:33;;;;;;;7.00;3.50;;;;;;;-7.09;87.14;97688.63;5058428;28;20585;-68
2023/02/09 02:33:09;;;;;;;8.20;2.93;;;;;;;-7.14;87.58;97687.91;5058201;28;20596;-68
2023/02/09 02:35:40;;;;;;;5.47;2.97;;;;;;;-7.18;87.78;97690.56;5057913;28;20728;-68
2023/02/09 02:38:17;;;;;;;6.90;3.77;;;;;;;-7.22;87.94;97686.41;5058311;28;20202;-68
2023/02/09 02:40:53;;;;;;;3.73;2.43;;;;;;;-7.22;87.74;97686.41;5058390;28;20234;-68
2023/02/09 02:43:24;;;;;;;5.23;2.80;;;;;;;-7.21;87.86;97688.09;5057555;28;20204;-68
2023/02/09 02:45:58;;;;;;;9.53;3.43;;;;;;;-7.27;86.75;97692.50;5057886;28;20229;-68
2023/02/09 02:48:32;;;;;;;4.53;2.80;;;;;;;-7.24;86.88;97695.84;5057443;28;20669;-68
2023/02/09 02:51:03;;;;;;;7.53;3.57;;;;;;;-7.29;86.78;97691.69;5057425;28;20219;-68
2023/02/09 02:53:33;;;;;;;5.63;3.40;;;;;;;-7.36;86.35;97700.41;5058491;28;20667;-68
2023/02/09 02:56:04;;;;;;;7.00;2.87;;;;;;;-7.37;87.40;97699.53;5057999;28;20233;-68
2023/02/09 02:58:34;;;;;;;11.13;4.33;;;;;;;-7.37;87.65;97704.66;5057710;28;20928;-68
2023/02/09 03:01:03;;;;;;;4.93;2.47;;;;;;;-7.34;86.91;97703.75;5057937;28;20229;-68
2023/02/09 03:03:34;;;;;;;3.47;2.27;;;;;;;-7.40;86.69;97699.63;5057669;28;20200;-68
2023/02/09 03:06:05;;;;;;;6.33;4.17;;;;;;;-7.45;86.31;97693.75;5057866;28;20201;-68
2023/02/09 03:08:46;;;;;;;6.43;2.57;;;;;;;-7.46;86.28;97691.25;5057888;28;20214;-68
2023/02/09 03:11:12;;;;;;;1.83;1.73;;;;;;;-7.46;85.58;97688.69;5057621;28;20572;-68
2023/02/09 03:13:59;;;;;;;6.27;2.90;;;;;;;-7.41;85.79;97689.44;5056143;28;20209;-68
2023/02/09 03:16:33;;;;;;;8.07;2.60;;;;;;;-7.44;86.49;97702.31;5057667;28;20224;-68
2023/02/09 03:19:13;;;;;;;4.97;3.03;;;;;;;-7.50;85.98;97699.88;5057783;28;20684;-68
2023/02/09 03:21:48;;;;;;;9.97;4.40;;;;;;;-7.58;86.24;97694.91;5057538;28;20229;-68
2023/02/09 03:24:22;;;;;;;4.83;3.17;;;;;;;-7.51;86.10;97700.75;5057083;28;20201;-68
2023/02/09 03:26:53;;;;;;;10.57;3.23;;;;;;;-7.55;86.67;97701.69;5055685;28;20291;-68
2023/02/09 03:29:22;;;;;;;5.60;4.67;;;;;;;-7.52;86.69;97699.06;5057357;28;20211;-68
2023/02/09 03:31:49;;;;;;;11.67;5.37;;;;;;;-7.66;86.75;97698.50;5057235;28;20585;-68
2023/02/09 03:34:18;;;;;;;5.10;3.53;;;;;;;-7.65;87.49;97697.66;5056460;28;20201;-68
2023/02/09 03:36:49;;;;;;;6.63;3.30;;;;;;;-7.73;87.58;97702.09;5056913;28;20238;-68
2023/02/09 03:39:16;;;;;;;4.50;3.47;;;;;;;-7.80;87.21;97703.94;5057557;28;20574;-68
2023/02/09 03:41:42;;;;;;;10.33;3.83;;;;;;;-7.82;88.00;97710.78;5056991;28;20233;-68
2023/02/09 03:44:27;;;;;;;11.33;4.13;;;;;;;-7.75;88.25;97706.38;5056865;28;20209;-68
2023/02/09 03:46:55;;;;;;;10.03;3.93;;;;;;;-7.59;88.35;97705.19;5056697;28;20203;-68
2023/02/09 03:49:26;;;;;;;10.90;5.47;;;;;;;-7.54;87.08;97705.94;5056748;28;20198;-68
2023/02/09 03:51:52;;;;;;;3.80;2.43;;;;;;;-7.63;86.14;97701.84;5057087;28;20226;-68
2023/02/09 03:54:20;;;;;;;4.90;3.30;;;;;;;-7.70;86.81;97704.56;5056277;28;20566;-68
2023/02/09 03:56:47;;;;;;;2.60;2.43;;;;;;;-7.70;86.99;97712.25;5056667;28;20226;-68
2023/02/09 03:59:13;;;;;;;14.60;5.10;;;;;;;-7.82;87.05;97702.28;5056130;28;21096;-68
2023/02/09 04:01:40;;;;;;;6.07;3.10;;;;;;;-7.93;87.62;97706.78;5057170;28;20232;-68
2023/02/09 04:04:06;;;;;;;4.00;2.63;;;;;;;-7.82;87.43;97699.72;5056064;28;20209;-68
2023/02/09 04:06:35;;;;;;;8.07;2.53;;;;;;;-7.78;87.69;97697.09;5059705;28;20205;-68
2023/02/09 04:09:03;;;;;;;6.93;3.53;;;;;;;-7.88;88.21;97694.75;5057481;28;20205;-68
2023/02/09 04:11:29;;;;;;;5.50;3.33;;;;;;;-7.81;87.85;97701.44;5056973;28;20714;-68
2023/02/09 04:13:56;;;;;;;2.80;2.43;;;;;;;-7.77;87.90;97703.88;5055875;28;20221;-68
2023/02/09 04:16:23;;;;;;;11.37;5.00;;;;;;;-7.75;88.60;97708.94;5056116;28;20566;-68
2023/02/09 04:18:49;;;;;;;10.77;4.40;;;;;;;-7.85;87.73;97709.19;5057105;28;20208;-68
2023/02/09 04:21:16;;;;;;;10.67;5.17;;;;;;;-7.73;88.57;97722.56;5056743;28;20229;-68
2023/02/09 04:23:43;;;;;;;7.00;2.17;;;;;;;-7.70;88.98;97719.94;5055259;28;20212;-68
2023/02/09 04:26:10;;;;;;;8.03;4.10;;;;;;;-7.71;88.09;97728.50;5055663;28;20212;-68
2023/02/09 04:28:37;;;;;;;14.50;4.43;;;;;;;-7.68;87.91;97724.13;5056600;28;20205;-68
2023/02/09 04:31:03;;;;;;;4.97;2.73;;;;;;;-7.77;88.31;97728.63;5055896;28;20583;-68
2023/02/09 04:33:30;;;;;;;4.77;3.93;;;;;;;-7.84;88.65;97726.22;5056786;28;20205;-68
2023/02/09 04:35:56;;;;;;;6.93;4.17;;;;;;;-7.84;89.04;97727.06;5056265;28;20229;-68
2023/02/09 04:38:24;;;;;;;10.33;4.87;;;;;;;-8.03;88.89;97735.13;5056331;28;20206;-68
2023/02/09 04:40:54;;;;;;;7.40;3.20;;;;;;;-7.83;89.52;97728.75;5056663;28;20358;-68
2023/02/09 04:43:21;;;;;;;6.23;4.57;;;;;;;-7.83;89.24;97728.75;5056243;28;20203;-68
2023/02/09 04:45:47;;;;;;;6.80;4.17;;;;;;;-7.78;88.50;97722.69;5055648;28;20205;-68
2023/02/09 04:48:17;;;;;;;5.83;2.80;;;;;;;-7.73;88.21;97722.56;5056641;28;20584;-68
2023/02/09 04:50:44;;;;;;;10.87;4.73;;;;;;;-7.89;86.93;97717.78;5058171;28;20220;-69
2023/02/09 04:53:11;;;;;;;6.23;3.90;;;;;;;-7.89;87.22;97728.03;5057754;28;20290;-69
2023/02/09 04:55:38;;;;;;;8.70;4.33;;;;;;;-7.95;87.63;97718.78;5055442;28;21194;-69
2023/02/09 05:00:51;;;;;;;16.87;3.40;;;;;;;-7.90;87.15;97711.84;5056088;28;20265;-69
2023/02/09 05:03:17;;;;;;;9.07;3.80;;;;;;;-7.93;87.32;97717.00;5056409;28;20209;-68
2023/02/09 05:05:44;;;;;;;6.93;3.93;;;;;;;-7.96;87.60;97714.53;5055500;28;20202;-69
2023/02/09 05:08:11;;;;;;;10.30;5.30;;;;;;;-8.02;87.99;97706.97;5056259;28;20210;-69
2023/02/09 05:10:38;;;;;;;10.43;3.67;;;;;;;-8.00;87.56;97718.03;5055949;28;20233;-69
2023/02/09 05:13:06;;;;;;;2.53;2.33;;;;;;;-7.86;87.28;97720.31;5056684;28;20200;-69
2023/02/09 05:15:32;;;;;;;5.17;2.90;;;;;;;-8.03;86.25;97725.75;5055231;28;20227;-69
2023/02/09 05:17:59;;;;;;;5.27;3.67;;;;;;;-8.10;86.76;97719.06;5055690;28;20700;-68
2023/02/09 05:20:25;;;;;;;5.87;3.57;;;;;;;-8.09;88.01;97715.66;5056560;28;20226;-69
2023/02/09 05:22:52;;;;;;;11.70;3.67;;;;;;;-8.10;87.55;97721.63;5056389;28;20205;-69
2023/02/09 05:25:18;;;;;;;5.20;3.50;;;;;;;-7.99;86.37;97731.63;5055363;28;20201;-69
2023/02/09 05:27:48;;;;;;;7.00;4.03;;;;;;;-7.97;86.04;97730.72;5058015;28;20205;-68
2023/02/09 05:30:16;;;;;;;5.30;3.17;;;;;;;-8.04;86.86;97739.41;5056277;28;21033;-66
2023/02/09 05:32:42;;;;;;;12.47;3.33;;;;;;;-8.01;86.94;97729.13;5055828;28;20202;-67
2023/02/09 05:35:09;;;;;;;6.47;3.10;;;;;;;-8.01;86.40;97730.84;5055519;28;20569;-67
2023/02/09 05:37:35;;;;;;;5.90;3.50;;;;;;;-7.99;86.11;97734.19;5059037;28;20208;-67
2023/02/09 05:40:02;;;;;;;12.60;3.70;;;;;;;-8.05;85.71;97737.72;5059757;28;20210;-68
2023/02/09 05:42:28;;;;;;;8.40;4.40;;;;;;;-8.04;86.38;97739.41;5059934;28;20210;-67
2023/02/09 05:44:54;;;;;;;14.77;5.00;;;;;;;-8.10;87.21;97736.97;5058713;28;20206;-67
2023/02/09 05:47:25;;;;;;;6.40;4.17;;;;;;;-8.09;89.22;97725.88;5059481;28;20193;-68
2023/02/09 05:49:52;;;;;;;6.93;4.23;;;;;;;-8.14;90.20;97727.72;5059545;28;20235;-66
2023/02/09 05:52:19;;;;;;;4.03;2.77;;;;;;;-8.02;89.23;97729.97;5058747;28;20221;-66
2023/02/09 05:54:47;;;;;;;5.40;4.03;;;;;;;-7.97;88.25;97725.63;5058210;28;20209;-67
2023/02/09 05:57:15;;;;;;;6.17;3.87;;;;;;;-8.01;87.88;97731.66;5058860;28;20229;-68
2023/02/09 05:59:41;;;;;;;2.73;2.23;;;;;;;-7.97;86.50;97740.97;5059458;28;20205;-68
2023/02/09 06:02:08;;;;;;;6.43;3.33;;;;;;;-7.94;85.66;97734.94;5059057;28;20221;-68
2023/02/09 06:04:36;;;;;;;15.20;4.20;;;;;;;-8.00;86.24;97741.03;5058321;28;20201;-67
2023/02/09 06:07:03;;;;;;;5.83;3.40;;;;;;;-8.05;86.83;97740.28;5058979;28;20202;-67
2023/02/09 06:09:30;;;;;;;5.13;4.07;;;;;;;-8.09;87.43;97740.38;5059385;28;20213;-66
2023/02/09 06:11:56;;;;;;;7.43;4.73;;;;;;;-8.21;86.66;97740.63;5058849;28;20225;-67
2023/02/09 06:14:23;;;;;;;5.80;2.13;;;;;;;-8.12;87.08;97745.53;5058460;28;20205;-67
2023/02/09 06:16:49;;;;;;;5.30;3.67;;;;;;;-8.10;86.57;97748.94;5058511;28;20389;-68
2023/02/09 06:19:17;;;;;;;4.37;2.90;;;;;;;-8.01;85.81;97749.56;5058771;28;20198;-66
2023/02/09 06:21:46;;;;;;;8.70;3.67;;;;;;;-8.02;85.86;97747.06;5058865;28;20221;-66
2023/02/09 06:24:13;;;;;;;8.10;3.63;;;;;;;-8.02;86.66;97754.72;5058439;28;20211;-68
2023/02/09 06:26:40;;;;;;;8.60;3.70;;;;;;;-8.03;86.24;97751.34;5058743;28;20205;-68
2023/02/09 06:29:08;;;;;;;4.63;3.33;;;;;;;-8.01;86.41;97756.41;5058583;28;20201;-68
2023/02/09 06:31:34;;;;;;;11.47;5.57;;;;;;;-7.96;86.81;97757.16;5058610;28;20217;-67
2023/02/09 06:34:01;;;;;;;5.77;3.60;;;;;;;-8.03;87.74;97759.00;5057706;28;20213;-66
2023/02/09 06:36:27;;;;;;;2.87;2.60;;;;;;;-8.01;87.61;97758.97;5058464;28;20218;-68
2023/02/09 06:38:55;;;;;;;11.00;4.97;;;;;;;-7.87;87.30;97762.09;5058771;28;20206;-67
2023/02/09 06:41:22;;;;;;;7.00;3.07;;;;;;;-8.01;86.77;97764.09;5058405;28;20315;-68
2023/02/09 06:43:48;;;;;;;4.37;3.23;;;;;;;-7.95;86.62;97769.91;5057454;28;20673;-67
2023/02/09 06:46:14;;;;;;;3.53;3.23;;;;;;;-7.91;86.12;97780.94;5058305;28;20287;-68
2023/02/09 06:48:41;;;;;;;8.00;4.63;;;;;;;-7.81;85.76;97773.88;5057795;28;20210;-67
2023/02/09 06:51:08;;;;;;;5.07;4.03;;;;;;;-7.79;86.11;97776.41;5058580;28;20231;-68
2023/02/09 06:53:35;;;;;;;19.67;6.80;;;;;;;-7.83;87.21;97777.34;5057967;28;20204;-67
2023/02/09 06:56:04;;;;;;;11.53;5.53;;;;;;;-7.70;87.03;97777.06;5058245;28;20221;-68
2023/02/09 06:58:30;;;;;;;6.03;3.10;;;;;;;-7.69;86.28;97783.03;5057992;28;20202;-67
2023/02/09 07:01:01;;;;;;;7.20;2.43;;;;;;;-7.59;85.15;97789.66;5058105;28;20248;-67
2023/02/09 07:03:28;;;;;;;3.90;2.70;;;;;;;-7.78;84.85;97807.09;5058129;28;20210;-68
2023/02/09 07:05:54;;;;;;;6.07;3.57;;;;;;;-7.82;87.40;97792.66;5057553;28;20737;-68
2023/02/09 07:08:21;;;;;;;14.67;5.70;;;;;;;-7.81;88.17;97796.06;5057540;28;20214;-67
2023/02/09 07:10:47;;;;;;;6.10;3.37;;;;;;;-7.68;88.83;97805.19;5058045;28;20225;-68
2023/02/09 07:13:15;;;;;;;9.77;6.00;;;;;;;-7.54;88.15;97800.63;5057938;28;20198;-67
2023/02/09 07:15:42;;;;;;;10.33;4.53;;;;;;;-7.54;87.22;97804.03;5056337;28;20209;-67
2023/02/09 07:18:08;;;;;;;7.63;3.90;;;;;;;-7.42;87.11;97802.91;5057728;28;20212;-66
2023/02/09 07:20:34;;;;;;;9.30;4.77;;;;;;;-7.38;88.69;97809.66;5057859;28;20231;-68
2023/02/09 07:23:01;;;;;;;10.53;5.27;;;;;;;-7.23;88.36;97805.03;5058198;28;20213;-69
2023/02/09 07:25:27;;;;;;;6.03;3.77;;;;;;;-7.20;88.05;97808.41;5056773;28;20596;-67
2023/02/09 07:27:54;;;;;;;18.73;7.27;;;;;;;-7.24;91.44;97815.31;5056744;28;20213;-67
2023/02/09 07:30:22;;;;;;;9.10;5.23;;;;;;;-6.99;90.03;97810.47;5057158;28;20235;-67
2023/02/09 07:32:48;;;;;;;8.33;4.67;;;;;;;-6.93;89.55;97810.34;5058048;28;20211;-67
2023/02/09 07:35:15;;;;;;;18.23;5.17;;;;;;;-6.89;89.23;97801.69;5056637;28;20202;-68
2023/02/09 07:37:41;;;;;;;19.20;4.57;;;;;;;-6.75;89.25;97809.06;5056490;28;20238;-68
2023/02/09 07:40:09;;;;;;;19.50;8.00;;;;;;;-6.60;90.12;97810.38;5057306;28;20211;-68
2023/02/09 07:42:35;;;;;;;25.07;7.93;;;;;;;-6.50;88.89;97816.16;5056990;28;20230;-68
2023/02/09 07:45:02;;;;;;;15.40;5.80;;;;;;;-6.42;88.44;97815.06;5056375;28;20211;-67
2023/02/09 07:47:30;;;;;;;14.53;6.77;;;;;;;-6.18;88.69;97811.88;5057384;28;20204;-68
2023/02/09 07:49:56;;;;;;;13.67;6.73;;;;;;;-6.07;88.03;97814.16;5057089;28;20635;-69
2023/02/09 07:52:22;;;;;;;15.40;6.47;;;;;;;-5.95;88.34;97812.97;5056769;28;20776;-68
2023/02/09 07:54:50;;;;;;;14.73;6.70;;;;;;;-5.78;88.21;97808.22;5055547;28;20235;-67
2023/02/09 07:57:16;;;;;;;12.70;6.30;;;;;;;-5.68;88.15;97807.03;5055524;28;20319;-67
2023/02/09 07:59:42;;;;;;;21.77;7.67;;;;;;;-5.59;88.06;97808.53;5056426;28;20211;-67
2023/02/09 08:02:18;;;;;;;16.23;6.80;;;;;;;-5.27;88.41;97819.56;5057034;28;20743;-68
2023/02/09 08:04:46;;;;;;;9.77;6.47;;;;;;;-5.19;88.87;97823.59;5056593;28;20204;-67
2023/02/09 08:07:13;;;;;;;19.27;7.73;;;;;;;-5.11;89.71;97816.50;5056454;28;20208;-68
2023/02/09 08:09:39;;;;;;;19.33;8.23;;;;;;;-4.98;89.36;97816.97;5056794;28;20212;-68
2023/02/09 08:12:08;;;;;;;17.27;5.43;;;;;;;-5.09;90.91;97808.72;5056938;28;20281;-67
2023/02/09 08:14:38;;;;;;;27.83;8.87;;;;;;;-5.00;92.21;97801.59;5055878;28;20215;-68
2023/02/09 08:17:23;;;;;;;16.03;7.23;;;;;;;-5.17;91.89;97806.38;5056315;28;20719;-68
2023/02/09 08:19:56;;;;;;;20.17;7.90;;;;;;;-5.06;92.30;97803.53;5056953;28;20214;-68
2023/02/09 08:22:24;;;;;;;21.03;8.43;;;;;;;-4.91;91.38;97808.19;5056190;28;21147;-68
2023/02/09 08:24:51;;;;;;;10.10;6.17;;;;;;;-4.88;90.97;97805.53;5056397;28;20215;-67
2023/02/09 08:27:17;;;;;;;20.80;6.83;;;;;;;-4.79;91.28;97799.19;5056842;28;20226;-67
2023/02/09 08:29:44;;;;;;;10.53;6.17;;;;;;;-4.87;90.96;97802.06;5056073;28;20200;-68
2023/02/09 08:32:11;;;;;;;22.80;9.17;;;;;;;-4.68;91.97;97792.00;5056611;28;20238;-69
2023/02/09 08:34:37;;;;;;;13.87;7.30;;;;;;;-4.43;92.47;97781.75;5056321;28;20688;-69
2023/02/09 08:37:05;;;;;;;15.77;6.73;;;;;;;-4.28;91.93;97786.41;5056036;28;20728;-69
2023/02/09 08:39:31;;;;;;;21.77;8.43;;;;;;;-4.19;91.44;97789.50;5056286;28;20212;-67
2023/02/09 08:41:58;;;;;;;18.27;7.80;;;;;;;-4.02;91.94;97794.91;5056827;28;20235;-69
2023/02/09 08:44:24;;;;;;;22.87;9.30;;;;;;;-3.90;90.59;97795.34;5056043;28;20200;-68
2023/02/09 08:46:51;;;;;;;21.80;10.33;;;;;;;-3.86;90.42;97796.91;5058979;28;20748;-67
2023/02/09 08:49:17;;;;;;;28.00;11.27;;;;;;;-3.69;90.42;97798.91;5056670;28;20202;-69
2023/02/09 08:51:44;;;;;;;29.13;9.57;;;;;;;-3.60;91.42;97796.84;5056313;28;20682;-69
2023/02/09 08:54:11;;;;;;;24.43;9.63;;;;;;;-3.58;92.19;97793.34;5055873;28;20200;-66
2023/02/09 08:56:38;;;;;;;26.20;10.67;;;;;;;-3.81;92.36;97799.34;5056770;28;20228;-69
2023/02/09 08:59:05;;;;;;;24.27;11.03;;;;;;;-3.71;93.78;97790.41;5055649;28;21121;-69
2023/02/09 09:01:31;;;;;;;19.60;9.43;;;;;;;-3.79;92.04;97797.53;5056066;28;20723;-68
2023/02/09 09:03:58;;;;;;;30.77;6.73;;;;;;;-3.75;91.92;97796.56;5055719;28;20576;-67
2023/02/09 09:06:25;;;;;;;17.47;8.07;;;;;;;-3.60;92.87;97800.25;5056110;28;20215;-69
2023/02/09 09:08:52;;;;;;;28.77;9.97;;;;;;;-3.58;92.52;97792.47;5056275;28;20205;-68
2023/02/09 09:11:20;;;;;;;13.43;7.60;;;;;;;-3.17;91.81;97794.38;5057563;28;20227;-69
2023/02/09 09:13:47;;;;;;;20.13;9.17;;;;;;;-3.10;91.28;97796.66;5059073;28;20213;-68
2023/02/09 09:16:15;;;;;;;19.97;8.80;;;;;;;-3.38;92.29;97795.19;5059380;28;20456;-69
2023/02/09 09:18:43;;;;;;;20.37;8.77;;;;;;;-3.25;92.40;97796.41;5059231;28;20205;-67
2023/02/09 09:21:09;;;;;;;24.27;9.93;;;;;;;-3.09;91.93;97798.34;5058519;28;20227;-69
2023/02/09 09:23:36;;;;;;;22.23;10.60;;;;;;;-3.16;92.04;97802.03;5058600;28;20196;-68
2023/02/09 09:26:03;;;;;;;25.57;9.87;;;;;;;-3.03;92.33;97803.25;5058850;28;20197;-68
2023/02/09 09:28:31;;;;;;;22.30;8.60;;;;;;;-3.10;93.34;97809.56;5059326;28;20208;-69
2023/02/09 09:31:04;;;;;;;21.57;10.27;;;;;;;-2.91;92.12;97802.81;5059106;28;20413;-67
2023/02/09 09:33:31;;;;;;;20.33;9.57;;;;;;;-3.03;92.91;97792.94;5058759;28;20212;-68
2023/02/09 09:35:59;;;;;;;27.13;11.10;;;;;;;-2.77;93.07;97796.22;5058735;28;20204;-69
2023/02/09 09:38:26;;;;;;;22.97;8.50;;;;;;;-2.54;93.08;97793.56;5059711;28;20222;-67
2023/02/09 09:40:53;;;;;;;31.93;11.63;;;;;;;-2.14;93.16;97791.91;5059616;28;20228;-68
2023/02/09 09:43:25;;;;;;;33.37;11.30;;;;;;;-1.99;92.79;97788.66;5059263;28;20205;-69
2023/02/09 09:45:52;;;;;;;15.53;7.33;;;;;;;-2.31;93.48;97793.50;5060230;28;20212;-68
2023/02/09 09:48:23;;;;;;;24.70;10.90;;;;;;;-2.46;96.93;97795.84;5059617;28;20214;-68
2023/02/09 09:50:54;;;;;;;14.07;6.37;;;;;;;-2.43;97.67;97794.00;5058950;28;20223;-69
2023/02/09 09:53:30;;;;;;;32.20;13.43;;;;;;;-2.21;98.84;97803.38;5059533;28;20843;-69
2023/02/09 09:55:59;;;;;;;36.90;12.23;;;;;;;-2.24;98.74;97795.78;5058339;28;20210;-69
2023/02/09 09:58:28;;;;;;;37.37;12.07;;;;;;;-2.11;99.00;97802.09;5057914;28;20557;-68
2023/02/09 10:00:58;;;;;;;31.03;9.60;;;;;;;-2.17;99.09;97810.09;5058902;28;20222;-69
2023/02/09 10:03:25;;;;;;;35.00;14.43;;;;;;;-2.00;99.07;97807.66;5058971;28;20602;-68
2023/02/09 10:05:54;;;;;;;10.50;5.90;;;;;;;-2.18;98.65;97807.56;5058609;28;20217;-68
2023/02/09 10:08:27;;;;;;;36.17;11.27;;;;;;;-1.69;97.36;97800.31;5059011;28;20207;-68
2023/02/09 10:11:00;;;;;;;50.70;17.83;;;;;;;-1.77;98.35;97810.97;5058542;28;20438;-67
2023/02/09 10:13:33;;;;;;;35.13;13.53;;;;;;;-1.82;98.75;97809.44;5058212;28;20574;-68
2023/02/09 10:16:01;;;;;;;28.27;12.93;;;;;;;-1.62;97.78;97818.03;5058193;28;20562;-68
2023/02/09 10:18:32;;;;;;;17.37;8.43;;;;;;;-1.68;97.90;97807.97;5059093;28;20242;-67
2023/02/09 10:21:04;;;;;;;46.63;14.33;;;;;;;-1.32;97.94;97797.75;5059114;28;20227;-69
2023/02/09 10:23:40;;;;;;;10.73;4.93;;;;;;;-1.38;95.97;97804.06;5056604;28;20671;-68
2023/02/09 10:26:19;;;;;;;20.87;7.80;;;;;;;-1.24;95.63;97793.13;5058770;28;20698;-68
2023/02/09 10:28:48;;;;;;;23.40;11.50;;;;;;;-1.18;96.08;97802.25;5058894;28;20215;-68
2023/02/09 10:31:22;;;;;;;34.90;14.40;;;;;;;-1.07;95.76;97796.59;5058685;28;20226;-68
2023/02/09 10:33:53;;;;;;;30.00;12.40;;;;;;;-0.99;94.68;97787.59;5057907;28;20211;-68
2023/02/09 10:36:26;;;;;;;33.93;12.80;;;;;;;-0.90;94.01;97788.94;5059210;28;20201;-68
2023/02/09 10:39:02;;;;;;;27.00;13.37;;;;;;;-0.83;92.65;97785.97;5057880;28;20411;-68
2023/02/09 10:41:33;;;;;;;18.87;7.80;;;;;;;-0.85;92.71;97782.63;5058007;28;20226;-68
2023/02/09 10:44:00;;;;;;;36.87;13.10;;;;;;;-0.75;92.77;97783.88;5057493;28;20228;-68
2023/02/09 10:46:27;;;;;;;41.93;12.73;;;;;;;-0.63;92.48;97776.34;5057697;28;20214;-69
2023/02/09 10:48:54;;;;;;;27.57;11.17;;;;;;;-0.55;92.27;97783.75;5057725;28;20205;-68
2023/02/09 10:51:27;;;;;;;25.80;11.33;;;;;;;-0.62;92.10;97772.88;5058444;28;20222;-68
2023/02/09 10:54:01;;;;;;;39.83;15.70;;;;;;;-0.40;91.65;97772.69;5055963;28;20213;-69
2023/02/09 10:56:33;;;;;;;35.00;13.73;;;;;;;-0.29;91.76;97767.84;5058419;28;20212;-69
2023/02/09 10:59:02;;;;;;;35.23;13.33;;;;;;;-0.29;91.51;97765.25;5057886;28;20700;-69
2023/02/09 11:01:34;;;;;;;39.80;14.10;;;;;;;-0.30;91.26;97760.97;5058477;28;20227;-69
2023/02/09 11:04:03;;;;;;;37.53;13.93;;;;;;;0.02;90.68;97755.84;5057678;28;20201;-69
2023/02/09 11:06:36;;;;;;;40.17;13.33;;;;;;;0.09;89.53;97763.25;5057718;28;20205;-68
2023/02/09 11:09:07;;;;;;;31.87;13.27;;;;;;;0.14;89.29;97760.41;5057868;28;20965;-68
2023/02/09 11:11:36;;;;;;;42.33;13.70;;;;;;;0.18;89.25;97749.00;5058107;28;20876;-69
2023/02/09 11:14:03;;;;;;;31.43;12.43;;;;;;;0.26;87.83;97755.44;5057313;28;20692;-69
2023/02/09 11:16:47;;;;;;;31.47;14.97;;;;;;;0.42;88.63;97740.81;5057764;28;20201;-68
2023/02/09 11:19:26;;;;;;;52.37;17.57;;;;;;;0.39;87.87;97745.28;5057895;28;20587;-69
2023/02/09 11:22:02;;;;;;;35.53;13.20;;;;;;;0.46;87.65;97742.31;5058102;28;20274;-69
2023/02/09 11:24:47;;;;;;;28.30;9.93;;;;;;;0.45;86.92;97743.22;5057073;28;20208;-69
2023/02/09 11:27:39;;;;;;;26.17;11.30;;;;;;;0.55;88.00;97740.97;5057127;28;20645;-69
2023/02/09 11:30:21;;;;;;;32.03;12.33;;;;;;;0.56;86.81;97735.72;5057472;28;20193;-69
2023/02/09 11:32:52;;;;;;;30.17;12.13;;;;;;;0.75;86.04;97731.22;5057432;28;20200;-69
2023/02/09 11:35:22;;;;;;;34.27;13.13;;;;;;;0.74;85.30;97733.00;5056383;28;20979;-69
2023/02/09 11:37:55;;;;;;;26.47;10.73;;;;;;;0.92;85.17;97738.97;5057493;28;20232;-69
2023/02/09 11:40:31;;;;;;;14.67;8.07;;;;;;;0.88;85.43;97729.63;5057332;28;20246;-69
2023/02/09 11:43:08;;;;;;;25.27;10.80;;;;;;;1.00;84.84;97729.00;5057577;28;20215;-69